Time;durP1;ratioP1;P1;durP2;ratioP2;P2;SDS_P1;SDS_P2;PMS_P1;PMS_P2;Temp;Humidity;BMP_temperature;BMP_pressure;BME280_temperature;BME280_humidity;BME280_pressure;Samples;Min_cycle;Max_cycle;Signal;HPM_P1;HPM_P2
2024/04/04 00:00:06;;;;;;;111.05;14.15;;;;;;;;;;5021498;28;20037;-77
2024/04/04 00:02:32;;;;;;;124.93;13.82;;;;;;;;;;5037838;28;20045;-77
2024/04/04 00:04:59;;;;;;;116.85;15.55;;;;;;;;;;5021594;28;20120;-77
2024/04/04 00:07:25;;;;;;;127.68;14.18;;;;;;;;;;5037514;28;20036;-77
2024/04/04 00:09:51;;;;;;;125.43;15.10;;;;;;;;;;5021329;28;20044;-78
2024/04/04 00:12:19;;;;;;;125.43;14.43;;;;;;;;;;5037533;28;20526;-77
2024/04/04 00:14:48;;;;;;;123.97;15.13;;;;;;;;;;5021654;28;20406;-77
2024/04/04 00:17:14;;;;;;;;;;;;;;;;;;5004915;28;20338;-77
2024/04/04 00:19:40;;;;;;;141.93;15.10;;;;;;;;;;5054509;28;19921;-78
2024/04/04 00:22:05;;;;;;;152.98;15.65;;;;;;;;;;5037268;28;20091;-77
2024/04/04 00:24:31;;;;;;;113.32;14.55;;;;;;;;;;5004821;28;20455;-77
2024/04/04 00:26:57;;;;;;;132.45;14.27;;;;;;;;;;5013520;28;20041;-78
2024/04/04 00:29:22;;;;;;;101.53;13.55;;;;;;;;;;5036881;28;20045;-76
2024/04/04 00:31:48;;;;;;;128.18;15.02;;;;;;;;;;5037552;28;20037;-77
2024/04/04 00:34:14;;;;;;;117.03;14.05;;;;;;;;;;5037204;28;20072;-78
2024/04/04 00:36:40;;;;;;;131.00;15.32;;;;;;;;;;5037566;28;20048;-77
2024/04/04 00:39:06;;;;;;;130.25;15.90;;;;;;;;;;5036385;28;20120;-77
2024/04/04 00:41:32;;;;;;;136.60;15.65;;;;;;;;;;5004762;28;20049;-78
2024/04/04 00:43:57;;;;;;;137.52;15.32;;;;;;;;;;5037565;28;20430;-78
2024/04/04 00:46:24;;;;;;;128.65;16.25;;;;;;;;;;5037100;28;20407;-77
2024/04/04 00:48:51;;;;;;;123.38;14.65;;;;;;;;;;5037237;28;20487;-77
2024/04/04 00:51:17;;;;;;;124.75;15.60;;;;;;;;;;5036841;28;20037;-77
2024/04/04 00:53:43;;;;;;;115.70;14.13;;;;;;;;;;5020836;28;20442;-77
2024/04/04 00:56:10;;;;;;;130.13;13.88;;;;;;;;;;5020304;28;20063;-78
2024/04/04 00:58:35;;;;;;;128.73;15.60;;;;;;;;;;5036953;28;20037;-77
2024/04/04 01:01:01;;;;;;;122.78;15.00;;;;;;;;;;5037215;28;20048;-77
2024/04/04 01:03:28;;;;;;;120.25;15.45;;;;;;;;;;5036797;28;20051;-78
2024/04/04 01:05:53;;;;;;;140.52;14.93;;;;;;;;;;5036900;28;20055;-77
2024/04/04 01:08:20;;;;;;;134.48;16.08;;;;;;;;;;5036552;28;20037;-77
2024/04/04 01:10:47;;;;;;;137.80;15.48;;;;;;;;;;5036806;28;20047;-77
2024/04/04 01:13:13;;;;;;;134.93;14.10;;;;;;;;;;5019970;28;20052;-77
2024/04/04 01:15:39;;;;;;;141.70;16.48;;;;;;;;;;5036998;28;20071;-77
2024/04/04 01:18:04;;;;;;;145.88;16.55;;;;;;;;;;5019822;28;20086;-77
2024/04/04 01:20:30;;;;;;;138.80;15.35;;;;;;;;;;5036740;28;20468;-77
2024/04/04 01:22:56;;;;;;;129.88;15.68;;;;;;;;;;5036821;28;20037;-77
2024/04/04 01:25:22;;;;;;;139.68;15.45;;;;;;;;;;5035940;28;20041;-77
2024/04/04 01:27:49;;;;;;;135.05;15.13;;;;;;;;;;5025771;28;20395;-77
2024/04/04 01:30:16;;;;;;;130.45;15.50;;;;;;;;;;5019527;28;20037;-77
2024/04/04 01:32:42;;;;;;;143.18;14.88;;;;;;;;;;5036639;28;20365;-76
2024/04/04 01:35:08;;;;;;;140.45;16.30;;;;;;;;;;5003248;28;20398;-77
2024/04/04 01:37:34;;;;;;;135.65;16.23;;;;;;;;;;5053125;28;20041;-77
2024/04/04 01:40:00;;;;;;;146.73;15.55;;;;;;;;;;5036260;28;20037;-77
2024/04/04 01:42:26;;;;;;;134.15;14.73;;;;;;;;;;5035909;28;20175;-77
2024/04/04 01:44:52;;;;;;;145.65;17.08;;;;;;;;;;5036435;28;20041;-77
2024/04/04 01:47:17;;;;;;;127.05;16.35;;;;;;;;;;5035602;28;20048;-77
2024/04/04 01:49:43;;;;;;;130.80;16.58;;;;;;;;;;5019750;28;20048;-77
2024/04/04 01:52:09;;;;;;;134.35;16.85;;;;;;;;;;5034880;28;20037;-77
2024/04/04 01:54:35;;;;;;;113.43;13.98;;;;;;;;;;5019616;28;20124;-77
2024/04/04 01:57:00;;;;;;;131.43;15.98;;;;;;;;;;5036138;28;20041;-77
2024/04/04 01:59:26;;;;;;;147.90;16.77;;;;;;;;;;5032052;28;20038;-78
2024/04/04 02:01:52;;;;;;;134.90;15.80;;;;;;;;;;5032378;28;20128;-77
2024/04/04 02:04:18;;;;;;;119.82;16.58;;;;;;;;;;5032295;28;20045;-77
2024/04/04 02:06:44;;;;;;;136.95;15.30;;;;;;;;;;4999600;28;20473;-77
2024/04/04 02:09:10;;;;;;;138.75;16.00;;;;;;;;;;5032229;28;20053;-77
2024/04/04 02:11:36;;;;;;;145.68;16.52;;;;;;;;;;5032273;28;20517;-77
2024/04/04 02:14:01;;;;;;;136.85;15.65;;;;;;;;;;5032337;28;20087;-77
2024/04/04 02:16:29;;;;;;;132.50;15.43;;;;;;;;;;5048547;28;20041;-77
2024/04/04 02:18:55;;;;;;;143.15;15.30;;;;;;;;;;5032482;28;20037;-77
2024/04/04 02:21:21;;;;;;;124.32;16.15;;;;;;;;;;5031566;28;20381;-77
2024/04/04 02:23:47;;;;;;;116.35;14.07;;;;;;;;;;5016102;28;20045;-77
2024/04/04 02:26:13;;;;;;;118.20;15.30;;;;;;;;;;5014919;28;20043;-77
2024/04/04 02:28:39;;;;;;;114.43;15.40;;;;;;;;;;5031925;28;20095;-78
2024/04/04 02:31:05;;;;;;;130.93;15.25;;;;;;;;;;5015377;28;20029;-76
2024/04/04 02:33:31;;;;;;;121.90;15.73;;;;;;;;;;5032095;28;20033;-77
2024/04/04 02:35:57;;;;;;;113.70;14.63;;;;;;;;;;5032124;28;20045;-77
2024/04/04 02:38:25;;;;;;;118.65;15.07;;;;;;;;;;5031598;28;20407;-77
2024/04/04 02:40:50;;;;;;;144.90;16.65;;;;;;;;;;5015672;28;20048;-77
2024/04/04 02:43:17;;;;;;;135.27;16.25;;;;;;;;;;5031571;28;20049;-77
2024/04/04 02:45:43;;;;;;;146.00;17.50;;;;;;;;;;5032094;28;20047;-77
2024/04/04 02:48:09;;;;;;;119.68;15.88;;;;;;;;;;5031669;28;20100;-77
2024/04/04 02:50:35;;;;;;;128.07;15.82;;;;;;;;;;5048144;28;20065;-77
2024/04/04 02:53:01;;;;;;;130.82;15.50;;;;;;;;;;5031876;28;20041;-77
2024/04/04 02:55:27;;;;;;;124.03;14.48;;;;;;;;;;5031455;28;20529;-77
2024/04/04 02:57:53;;;;;;;117.78;14.60;;;;;;;;;;5031660;28;20045;-77
2024/04/04 03:00:20;;;;;;;138.70;16.05;;;;;;;;;;5031420;28;20045;-77
2024/04/04 03:02:46;;;;;;;133.32;14.63;;;;;;;;;;5014866;28;20041;-77
2024/04/04 03:05:12;;;;;;;130.55;16.75;;;;;;;;;;4998353;28;20045;-77
2024/04/04 03:07:38;;;;;;;136.35;17.08;;;;;;;;;;5015211;28;20111;-77
2024/04/04 03:10:04;;;;;;;143.60;18.35;;;;;;;;;;5015088;28;20099;-77
2024/04/04 03:12:29;;;;;;;155.18;16.60;;;;;;;;;;5014819;28;20484;-77
2024/04/04 03:14:55;;;;;;;137.77;16.27;;;;;;;;;;5031450;28;20179;-77
2024/04/04 03:17:21;;;;;;;145.13;17.75;;;;;;;;;;5014561;28;20050;-77
2024/04/04 03:19:47;;;;;;;132.52;14.65;;;;;;;;;;5031582;28;20046;-77
2024/04/04 03:22:12;;;;;;;133.80;15.77;;;;;;;;;;5014873;28;20048;-77
2024/04/04 03:24:38;;;;;;;134.00;16.50;;;;;;;;;;5031666;28;20052;-77
2024/04/04 03:27:05;;;;;;;127.97;16.48;;;;;;;;;;5014403;28;20052;-77
2024/04/04 03:29:30;;;;;;;128.00;16.13;;;;;;;;;;5031210;28;20041;-78
2024/04/04 03:31:56;;;;;;;145.95;18.30;;;;;;;;;;5015323;28;20060;-78
2024/04/04 03:34:22;;;;;;;140.02;16.73;;;;;;;;;;5014632;28;20512;-78
2024/04/04 03:36:48;;;;;;;131.20;15.80;;;;;;;;;;5031440;28;20049;-77
2024/04/04 03:39:14;;;;;;;133.55;16.67;;;;;;;;;;5030894;28;20041;-78
2024/04/04 03:41:40;;;;;;;135.65;16.13;;;;;;;;;;5014985;28;20085;-77
2024/04/04 03:44:06;;;;;;;156.02;17.63;;;;;;;;;;5031191;28;20042;-77
2024/04/04 03:46:32;;;;;;;145.10;16.70;;;;;;;;;;5031241;28;20045;-78
2024/04/04 03:48:58;;;;;;;157.95;17.80;;;;;;;;;;5014983;28;20041;-77
2024/04/04 03:51:25;;;;;;;157.65;18.98;;;;;;;;;;5030687;28;20072;-77
2024/04/04 03:53:51;;;;;;;145.52;16.98;;;;;;;;;;5048105;28;20045;-77
2024/04/04 03:56:17;;;;;;;132.50;15.88;;;;;;;;;;5014241;28;20374;-77
2024/04/04 03:58:42;;;;;;;150.55;17.17;;;;;;;;;;4999553;28;20396;-78
2024/04/04 04:01:08;;;;;;;156.90;16.83;;;;;;;;;;5034211;28;20060;-77
2024/04/04 04:03:34;;;;;;;152.32;17.58;;;;;;;;;;5001712;28;20045;-77
2024/04/04 04:06:01;;;;;;;145.52;16.23;;;;;;;;;;5034583;28;20033;-77
2024/04/04 04:08:27;;;;;;;160.38;17.63;;;;;;;;;;5034087;28;20044;-77
2024/04/04 04:10:52;;;;;;;142.25;17.00;;;;;;;;;;5034347;28;20047;-77
2024/04/04 04:13:18;;;;;;;147.35;18.48;;;;;;;;;;5033934;28;20239;-77
2024/04/04 04:16:02;;;;;;;157.77;17.92;;;;;;;;;;5037133;28;20094;-77
2024/04/04 04:18:28;;;;;;;133.10;16.17;;;;;;;;;;5037784;28;20988;-77
2024/04/04 04:23:40;;;;;;;139.77;16.40;;;;;;;;;;5037836;28;20041;-77
2024/04/04 04:26:06;;;;;;;141.93;18.20;;;;;;;;;;5042506;28;20086;-76
2024/04/04 04:28:32;;;;;;;150.70;17.38;;;;;;;;;;5037540;28;20044;-77
2024/04/04 04:30:58;;;;;;;138.73;17.45;;;;;;;;;;5037406;28;20082;-77
2024/04/04 04:33:24;;;;;;;134.68;15.45;;;;;;;;;;5037324;28;20049;-77
2024/04/04 04:35:49;;;;;;;134.02;16.77;;;;;;;;;;5037819;28;20045;-84
2024/04/04 04:38:15;;;;;;;134.07;15.20;;;;;;;;;;5037116;28;20060;-80
2024/04/04 04:40:42;;;;;;;137.10;15.77;;;;;;;;;;5037431;28;20071;-77
2024/04/04 04:43:08;;;;;;;137.25;15.73;;;;;;;;;;5036918;28;20049;-78
2024/04/04 04:45:35;;;;;;;128.80;16.63;;;;;;;;;;5021197;28;20044;-78
2024/04/04 04:48:01;;;;;;;130.73;15.20;;;;;;;;;;5037016;28;20078;-77
2024/04/04 04:50:27;;;;;;;135.13;16.20;;;;;;;;;;5020494;28;20067;-77
2024/04/04 04:52:52;;;;;;;128.73;15.10;;;;;;;;;;5037318;28;20041;-76
2024/04/04 04:55:18;;;;;;;133.07;16.42;;;;;;;;;;5036658;28;20052;-77
2024/04/04 04:57:46;;;;;;;142.48;17.33;;;;;;;;;;5037253;28;20124;-77
2024/04/04 05:00:12;;;;;;;132.27;16.27;;;;;;;;;;5033444;28;20049;-77
2024/04/04 05:02:38;;;;;;;141.68;17.80;;;;;;;;;;5033893;28;20038;-77
2024/04/04 05:05:15;;;;;;;147.98;16.58;;;;;;;;;;5033710;28;20060;-76
2024/04/04 05:07:41;;;;;;;124.45;15.27;;;;;;;;;;5033398;28;20045;-77
2024/04/04 05:10:07;;;;;;;133.73;15.75;;;;;;;;;;5033263;28;20109;-77
2024/04/04 05:12:33;;;;;;;145.43;16.45;;;;;;;;;;5033747;28;20407;-77
2024/04/04 05:14:59;;;;;;;143.98;16.08;;;;;;;;;;5017080;28;20052;-77
2024/04/04 05:17:25;;;;;;;136.43;17.77;;;;;;;;;;5033146;28;20052;-77
2024/04/04 05:19:50;;;;;;;127.07;15.18;;;;;;;;;;5033186;28;20037;-78
2024/04/04 05:22:16;;;;;;;128.80;16.63;;;;;;;;;;5049541;28;20099;-77
2024/04/04 05:24:42;;;;;;;128.35;15.48;;;;;;;;;;5033237;28;20421;-78
2024/04/04 05:27:08;;;;;;;135.57;15.23;;;;;;;;;;5032716;28;20049;-78
2024/04/04 05:29:33;;;;;;;131.85;15.85;;;;;;;;;;4996848;28;20077;-77
2024/04/04 05:31:59;;;;;;;125.03;16.33;;;;;;;;;;5013340;28;20050;-77
2024/04/04 05:34:28;;;;;;;134.93;16.05;;;;;;;;;;4996627;28;20124;-78
2024/04/04 05:36:53;;;;;;;129.40;15.32;;;;;;;;;;5013246;28;20046;-77
2024/04/04 05:39:20;;;;;;;156.80;16.58;;;;;;;;;;4996484;28;20052;-77
2024/04/04 05:41:48;;;;;;;133.18;14.95;;;;;;;;;;4997015;28;20048;-76
2024/04/04 05:44:15;;;;;;;134.45;15.30;;;;;;;;;;4996614;28;20460;-77
2024/04/04 05:46:41;;;;;;;145.20;15.75;;;;;;;;;;5013285;28;20042;-77
2024/04/04 05:49:07;;;;;;;141.18;16.08;;;;;;;;;;5012850;28;20083;-77
2024/04/04 05:51:33;;;;;;;134.02;15.52;;;;;;;;;;5012992;28;20416;-77
2024/04/04 05:53:58;;;;;;;122.72;15.38;;;;;;;;;;5013400;28;20083;-77
2024/04/04 05:56:24;;;;;;;136.98;16.25;;;;;;;;;;5012743;28;20057;-77
2024/04/04 05:58:50;;;;;;;145.50;15.73;;;;;;;;;;5015287;28;20049;-77
2024/04/04 06:01:16;;;;;;;123.35;16.08;;;;;;;;;;5015770;28;20389;-77
2024/04/04 06:03:42;;;;;;;121.55;14.05;;;;;;;;;;4983787;28;20034;-78
2024/04/04 06:06:09;;;;;;;111.63;13.65;;;;;;;;;;4999310;28;20038;-78
2024/04/04 06:08:35;;;;;;;135.15;16.10;;;;;;;;;;5015962;28;20038;-77
2024/04/04 06:11:01;;;;;;;121.88;14.25;;;;;;;;;;5016022;28;20046;-78
2024/04/04 06:13:28;;;;;;;110.53;13.15;;;;;;;;;;5015558;28;20440;-78
2024/04/04 06:15:55;;;;;;;127.45;15.07;;;;;;;;;;5016036;28;20038;-78
2024/04/04 06:18:20;;;;;;;134.50;15.85;;;;;;;;;;5015638;28;20043;-78
2024/04/04 06:20:46;;;;;;;144.52;15.48;;;;;;;;;;5015852;28;20117;-77
2024/04/04 06:23:13;;;;;;;119.93;15.73;;;;;;;;;;5015340;28;20053;-78
2024/04/04 06:25:38;;;;;;;133.93;14.02;;;;;;;;;;5001169;28;20038;-77
2024/04/04 06:28:04;;;;;;;119.57;15.77;;;;;;;;;;5040601;28;20491;-77
2024/04/04 06:30:31;;;;;;;114.38;14.52;;;;;;;;;;5035287;28;20128;-77
2024/04/04 06:32:57;;;;;;;126.85;15.18;;;;;;;;;;5019000;28;20060;-77
2024/04/04 06:35:23;;;;;;;118.00;14.52;;;;;;;;;;5034931;28;20611;-77
2024/04/04 06:37:49;;;;;;;108.22;13.68;;;;;;;;;;5018604;28;20048;-77
2024/04/04 06:40:14;;;;;;;128.15;14.10;;;;;;;;;;5018285;28;20055;-78
2024/04/04 06:42:40;;;;;;;115.00;14.63;;;;;;;;;;5035213;28;20045;-78
2024/04/04 06:45:06;;;;;;;109.85;14.65;;;;;;;;;;5018207;28;20041;-77
2024/04/04 06:47:32;;;;;;;111.57;15.23;;;;;;;;;;5035129;28;20044;-78
2024/04/04 06:49:58;;;;;;;129.50;14.00;;;;;;;;;;5035286;28;20033;-78
2024/04/04 06:52:24;;;;;;;112.75;13.50;;;;;;;;;;5034790;28;20051;-77
2024/04/04 06:54:50;;;;;;;101.57;13.27;;;;;;;;;;5035364;28;20434;-78
2024/04/04 06:57:15;;;;;;;117.53;13.77;;;;;;;;;;5034474;28;20430;-78
2024/04/04 06:59:41;;;;;;;112.30;14.30;;;;;;;;;;5031504;28;20045;-78
2024/04/04 07:02:07;;;;;;;112.38;13.80;;;;;;;;;;5031294;28;20049;-77
2024/04/04 07:04:33;;;;;;;117.00;15.15;;;;;;;;;;5031605;28;20041;-78
2024/04/04 07:06:59;;;;;;;121.53;14.98;;;;;;;;;;5031766;28;20083;-78
2024/04/04 07:09:24;;;;;;;114.93;15.02;;;;;;;;;;4998351;28;20049;-77
2024/04/04 07:11:50;;;;;;;119.18;15.52;;;;;;;;;;5031552;28;20396;-78
2024/04/04 07:14:16;;;;;;;121.25;14.68;;;;;;;;;;5014637;28;20037;-78
2024/04/04 07:16:42;;;;;;;128.63;15.20;;;;;;;;;;5031491;28;20546;-78
2024/04/04 07:19:07;;;;;;;129.77;14.82;;;;;;;;;;5031167;28;20065;-78
2024/04/04 07:21:33;;;;;;;117.82;13.20;;;;;;;;;;5031656;28;20042;-77
2024/04/04 07:23:59;;;;;;;114.10;15.18;;;;;;;;;;5031567;28;20037;-78
2024/04/04 07:26:25;;;;;;;125.07;14.88;;;;;;;;;;5030999;28;20052;-78
2024/04/04 07:28:50;;;;;;;123.80;14.85;;;;;;;;;;4995159;28;20053;-77
2024/04/04 07:31:16;;;;;;;120.25;14.40;;;;;;;;;;5011221;28;20050;-77
2024/04/04 07:33:42;;;;;;;101.00;13.82;;;;;;;;;;5011840;28;20050;-78
2024/04/04 07:36:08;;;;;;;119.70;13.73;;;;;;;;;;5011261;28;20049;-78
2024/04/04 07:38:34;;;;;;;101.80;13.18;;;;;;;;;;4995239;28;20433;-77
2024/04/04 07:41:06;;;;;;;115.15;14.60;;;;;;;;;;5011619;28;20038;-77
2024/04/04 07:43:33;;;;;;;114.30;14.05;;;;;;;;;;4995269;28;20046;-77
2024/04/04 07:46:02;;;;;;;104.68;12.68;;;;;;;;;;5011669;28;20392;-78
2024/04/04 07:48:28;;;;;;;112.25;14.15;;;;;;;;;;4995802;28;21170;-77
2024/04/04 07:50:54;;;;;;;117.10;15.63;;;;;;;;;;4999198;28;20046;-77
2024/04/04 07:53:20;;;;;;;108.18;14.00;;;;;;;;;;5015776;28;20084;-78
2024/04/04 07:55:45;;;;;;;106.47;13.60;;;;;;;;;;5013933;28;20038;-77
2024/04/04 07:58:11;;;;;;;104.40;14.15;;;;;;;;;;5013561;28;20041;-77
2024/04/04 08:00:37;;;;;;;110.72;13.20;;;;;;;;;;5029765;28;20033;-78
2024/04/04 08:03:03;;;;;;;103.03;14.00;;;;;;;;;;4997653;28;20037;-76
2024/04/04 08:05:30;;;;;;;92.00;12.88;;;;;;;;;;4996820;28;20103;-78
2024/04/04 08:07:57;;;;;;;107.57;13.55;;;;;;;;;;5013780;28;20366;-77
2024/04/04 08:10:22;;;;;;;96.03;12.32;;;;;;;;;;4997413;28;20503;-77
2024/04/04 08:12:51;;;;;;;110.70;14.70;;;;;;;;;;4998866;28;20117;-77
2024/04/04 08:15:17;;;;;;;112.35;12.77;;;;;;;;;;5014532;28;20053;-77
2024/04/04 08:17:43;;;;;;;118.60;14.75;;;;;;;;;;4998972;28;20133;-78
2024/04/04 08:20:14;;;;;;;88.80;12.77;;;;;;;;;;4998679;28;20046;-78
2024/04/04 08:22:40;;;;;;;109.40;14.93;;;;;;;;;;5014805;28;20049;-78
2024/04/04 08:25:06;;;;;;;100.45;12.48;;;;;;;;;;5014969;28;20042;-77
2024/04/04 08:27:33;;;;;;;105.95;14.35;;;;;;;;;;5017896;28;20383;-77
2024/04/04 08:29:59;;;;;;;93.45;13.88;;;;;;;;;;5035312;28;20043;-77
2024/04/04 08:32:25;;;;;;;122.00;14.07;;;;;;;;;;5018049;28;20427;-77
2024/04/04 08:34:51;;;;;;;105.43;13.07;;;;;;;;;;5034306;28;20128;-78
2024/04/04 08:37:17;;;;;;;105.38;13.75;;;;;;;;;;5017432;28;20045;-77
2024/04/04 08:39:42;;;;;;;109.18;14.07;;;;;;;;;;5017984;28;20092;-77
2024/04/04 08:42:08;;;;;;;97.93;13.25;;;;;;;;;;5017517;28;20128;-77
2024/04/04 08:44:34;;;;;;;101.00;13.75;;;;;;;;;;5002234;28;20543;-78
2024/04/04 08:47:00;;;;;;;91.65;12.68;;;;;;;;;;5034328;28;20214;-78
2024/04/04 08:49:27;;;;;;;114.65;15.23;;;;;;;;;;5017847;28;20056;-77
2024/04/04 08:51:54;;;;;;;111.63;14.68;;;;;;;;;;5034429;28;20043;-78
2024/04/04 08:54:21;;;;;;;113.20;14.65;;;;;;;;;;5000393;28;20045;-78
2024/04/04 08:56:47;;;;;;;94.13;13.27;;;;;;;;;;5032652;28;20045;-78
2024/04/04 08:59:13;;;;;;;105.38;14.15;;;;;;;;;;5015315;28;20512;-78
2024/04/04 09:01:39;;;;;;;102.25;14.20;;;;;;;;;;5031754;28;20044;-77
2024/04/04 09:04:05;;;;;;;106.93;14.30;;;;;;;;;;5015803;28;20037;-78
2024/04/04 09:06:31;;;;;;;110.07;15.20;;;;;;;;;;5032391;28;20041;-77
2024/04/04 09:08:58;;;;;;;107.57;13.15;;;;;;;;;;5016057;28;20694;-77
2024/04/04 09:11:28;;;;;;;97.35;14.25;;;;;;;;;;5048286;28;20045;-78
2024/04/04 09:14:04;;;;;;;90.85;13.43;;;;;;;;;;5032211;28;20041;-78
2024/04/04 09:16:30;;;;;;;103.32;12.35;;;;;;;;;;5015281;28;20068;-78
2024/04/04 09:19:17;;;;;;;105.70;14.98;;;;;;;;;;5032390;28;20037;-77
2024/04/04 09:21:47;;;;;;;102.65;14.80;;;;;;;;;;5049233;28;20494;-77
2024/04/04 09:24:14;;;;;;;92.13;11.70;;;;;;;;;;5016594;28;20037;-77
2024/04/04 09:26:41;;;;;;;108.43;14.55;;;;;;;;;;5016711;28;20045;-78
2024/04/04 09:29:08;;;;;;;92.65;11.82;;;;;;;;;;5033190;28;20037;-77
2024/04/04 09:31:36;;;;;;;97.63;13.95;;;;;;;;;;5033402;28;20052;-77
2024/04/04 09:34:03;;;;;;;89.50;13.90;;;;;;;;;;5033225;28;20049;-77
2024/04/04 09:36:32;;;;;;;94.18;14.00;;;;;;;;;;5066314;28;20049;-77
2024/04/04 09:38:59;;;;;;;96.53;12.40;;;;;;;;;;5033368;28;20413;-77
2024/04/04 09:41:29;;;;;;;101.30;14.52;;;;;;;;;;5032632;28;20037;-78
2024/04/04 09:43:59;;;;;;;92.60;12.82;;;;;;;;;;5033948;28;20464;-77
2024/04/04 09:46:26;;;;;;;109.13;12.93;;;;;;;;;;5033477;28;20037;-77
2024/04/04 09:48:53;;;;;;;95.05;13.13;;;;;;;;;;5032492;28;20038;-78
2024/04/04 09:51:20;;;;;;;92.03;12.57;;;;;;;;;;5032792;28;20434;-77
2024/04/04 09:53:48;;;;;;;99.18;14.30;;;;;;;;;;5032934;28;20042;-78
2024/04/04 09:56:16;;;;;;;89.65;12.60;;;;;;;;;;5033061;28;20042;-78
2024/04/04 09:58:43;;;;;;;108.20;14.43;;;;;;;;;;5048838;28;20511;-78
2024/04/04 10:01:23;;;;;;;97.18;13.43;;;;;;;;;;5034286;28;20472;-78
2024/04/04 10:03:54;;;;;;;90.90;12.50;;;;;;;;;;5018052;28;20033;-77
2024/04/04 10:06:35;;;;;;;100.45;12.68;;;;;;;;;;5017647;28;20041;-77
2024/04/04 10:09:20;;;;;;;94.03;12.68;;;;;;;;;;5016325;28;20373;-77
2024/04/04 10:11:47;;;;;;;82.85;13.88;;;;;;;;;;4999049;28;20052;-78
2024/04/04 10:14:21;;;;;;;86.20;12.82;;;;;;;;;;5016014;28;20545;-77
2024/04/04 10:16:53;;;;;;;95.72;13.05;;;;;;;;;;5000498;28;20045;-78
2024/04/04 10:19:24;;;;;;;79.15;11.43;;;;;;;;;;5000049;28;20041;-78
2024/04/04 10:21:50;;;;;;;89.75;12.38;;;;;;;;;;4999404;28;20033;-78
2024/04/04 10:24:26;;;;;;;91.25;12.50;;;;;;;;;;4999006;28;20048;-78
2024/04/04 10:26:57;;;;;;;92.82;12.15;;;;;;;;;;5027519;28;20043;-78
2024/04/04 10:29:34;;;;;;;81.68;11.57;;;;;;;;;;5034837;28;20078;-76
2024/04/04 10:32:01;;;;;;;88.38;12.05;;;;;;;;;;5035559;28;20036;-77
2024/04/04 10:34:27;;;;;;;91.80;10.98;;;;;;;;;;5035081;28;20490;-77
2024/04/04 10:36:53;;;;;;;73.00;11.65;;;;;;;;;;5019043;28;20044;-78
2024/04/04 10:39:21;;;;;;;79.63;10.98;;;;;;;;;;5034766;28;20041;-78
2024/04/04 10:41:54;;;;;;;88.15;11.60;;;;;;;;;;5018904;28;20037;-77
2024/04/04 10:44:21;;;;;;;64.53;9.88;;;;;;;;;;5035747;28;20045;-78
2024/04/04 10:46:55;;;;;;;70.85;11.13;;;;;;;;;;5036116;28;20033;-77
2024/04/04 10:49:23;;;;;;;79.63;10.88;;;;;;;;;;4998902;28;20056;-78
2024/04/04 10:51:51;;;;;;;;;;;;;;;;;;5015784;28;20045;-78
2024/04/04 10:54:18;;;;;;;62.80;10.13;;;;;;;;;;5014965;28;19927;-78
2024/04/04 10:56:45;;;;;;;74.10;9.98;;;;;;;;;;4998560;28;20048;-78
2024/04/04 10:59:15;;;;;;;72.40;9.65;;;;;;;;;;5012798;28;20052;-78
2024/04/04 11:01:43;;;;;;;80.53;10.90;;;;;;;;;;5030823;28;20402;-78
2024/04/04 11:04:10;;;;;;;;;;;;;;;;;;5033702;28;20048;-78
2024/04/04 11:06:36;;;;;;;56.70;8.95;;;;;;;;;;5033542;28;19929;-77
2024/04/04 11:09:11;;;;;;;68.85;10.00;;;;;;;;;;5016862;28;20424;-77
2024/04/04 11:11:40;;;;;;;68.93;10.20;;;;;;;;;;5032946;28;20394;-78
2024/04/04 11:14:06;;;;;;;60.85;9.90;;;;;;;;;;5016720;28;20037;-78
2024/04/04 11:16:32;;;;;;;70.95;10.00;;;;;;;;;;5033205;28;20043;-77
2024/04/04 11:19:00;;;;;;;60.55;8.73;;;;;;;;;;5033669;28;20041;-78
2024/04/04 11:21:26;;;;;;;66.72;9.07;;;;;;;;;;5024277;28;20046;-78
2024/04/04 11:23:52;;;;;;;72.18;9.85;;;;;;;;;;5031290;28;20091;-77
2024/04/04 11:26:20;;;;;;;66.05;10.45;;;;;;;;;;5018405;28;20070;-77
2024/04/04 11:28:47;;;;;;;67.80;10.45;;;;;;;;;;5037727;28;20039;-78
2024/04/04 11:31:13;;;;;;;58.00;8.20;;;;;;;;;;5038402;28;20106;-78
2024/04/04 11:33:39;;;;;;;74.30;9.38;;;;;;;;;;5038869;28;20044;-76
2024/04/04 11:36:06;;;;;;;64.45;9.68;;;;;;;;;;5038280;28;20052;-77
2024/04/04 11:38:31;;;;;;;64.50;7.75;;;;;;;;;;5022198;28;20045;-76
2024/04/04 11:40:57;;;;;;;68.63;13.60;;;;;;;;;;5021894;28;20075;-78
2024/04/04 11:43:25;;;;;;;56.72;11.05;;;;;;;;;;5021621;28;20041;-78
2024/04/04 11:45:51;;;;;;;60.72;12.90;;;;;;;;;;5038619;28;20037;-77
2024/04/04 11:48:17;;;;;;;62.38;9.32;;;;;;;;;;5038110;28;20052;-77
2024/04/04 11:50:44;;;;;;;58.15;9.52;;;;;;;;;;5038309;28;20475;-78
2024/04/04 11:53:11;;;;;;;61.30;9.60;;;;;;;;;;5021582;28;20044;-77
2024/04/04 11:55:41;;;;;;;66.68;11.30;;;;;;;;;;5022223;28;20048;-78
2024/04/04 11:58:07;;;;;;;61.75;10.45;;;;;;;;;;5037941;28;20621;-77
2024/04/04 12:00:33;;;;;;;71.38;10.45;;;;;;;;;;5034951;28;20044;-77
2024/04/04 12:03:03;;;;;;;68.50;9.40;;;;;;;;;;5034967;28;20050;-77
2024/04/04 12:05:34;;;;;;;70.47;9.98;;;;;;;;;;5018197;28;20557;-78
2024/04/04 12:08:01;;;;;;;63.45;8.65;;;;;;;;;;5018615;28;20045;-77
2024/04/04 12:10:27;;;;;;;64.35;10.02;;;;;;;;;;5034234;28;20044;-77
2024/04/04 12:12:54;;;;;;;69.30;10.88;;;;;;;;;;5034956;28;20120;-78
2024/04/04 12:15:20;;;;;;;69.75;12.07;;;;;;;;;;5017772;28;20488;-77
2024/04/04 12:17:47;;;;;;;74.50;17.17;;;;;;;;;;5018498;28;20385;-77
2024/04/04 12:20:19;;;;;;;68.22;12.88;;;;;;;;;;5017539;28;20098;-77
2024/04/04 12:22:46;;;;;;;68.20;11.68;;;;;;;;;;5034547;28;20037;-77
2024/04/04 12:25:15;;;;;;;76.35;12.98;;;;;;;;;;5050421;28;20041;-77
2024/04/04 12:27:42;;;;;;;72.15;11.25;;;;;;;;;;5034247;28;20045;-78
2024/04/04 12:30:08;;;;;;;66.85;9.90;;;;;;;;;;5017203;28;20050;-77
2024/04/04 12:32:35;;;;;;;69.70;10.10;;;;;;;;;;5017917;28;20049;-77
2024/04/04 12:35:01;;;;;;;73.35;9.95;;;;;;;;;;5033640;28;20088;-78
2024/04/04 12:37:27;;;;;;;64.07;11.50;;;;;;;;;;5034058;28;20041;-77
2024/04/04 12:39:53;;;;;;;74.13;9.85;;;;;;;;;;5017835;28;20051;-77
2024/04/04 12:42:18;;;;;;;74.10;10.75;;;;;;;;;;5033960;28;20037;-78
2024/04/04 12:44:45;;;;;;;58.67;10.02;;;;;;;;;;5017728;28;20069;-77
2024/04/04 12:47:11;;;;;;;66.97;10.40;;;;;;;;;;5017074;28;20548;-77
2024/04/04 12:49:37;;;;;;;67.18;8.75;;;;;;;;;;5034099;28;20056;-77
2024/04/04 12:52:02;;;;;;;66.10;9.43;;;;;;;;;;5034013;28;20507;-77
2024/04/04 12:54:28;;;;;;;64.18;9.55;;;;;;;;;;5033566;28;20037;-78
2024/04/04 12:56:54;;;;;;;63.50;8.68;;;;;;;;;;5017369;28;20047;-77
2024/04/04 12:59:20;;;;;;;61.75;8.88;;;;;;;;;;5016808;28;20049;-78
2024/04/04 13:01:46;;;;;;;57.67;8.70;;;;;;;;;;5017587;28;20038;-77
2024/04/04 13:04:12;;;;;;;51.65;7.45;;;;;;;;;;5033618;28;20499;-77
2024/04/04 13:06:38;;;;;;;59.88;8.90;;;;;;;;;;5033493;28;20065;-76
2024/04/04 13:09:04;;;;;;;52.85;8.00;;;;;;;;;;5033741;28;20038;-76
2024/04/04 13:11:30;;;;;;;52.40;7.53;;;;;;;;;;5017011;28;20037;-77
2024/04/04 13:13:56;;;;;;;58.58;8.88;;;;;;;;;;5033803;28;20037;-77
2024/04/04 13:16:22;;;;;;;55.15;8.85;;;;;;;;;;5016718;28;20129;-77
2024/04/04 13:18:48;;;;;;;53.85;7.75;;;;;;;;;;5033520;28;20374;-77
2024/04/04 13:21:14;;;;;;;59.28;8.32;;;;;;;;;;5033037;28;20483;-77
2024/04/04 13:23:39;;;;;;;54.15;9.05;;;;;;;;;;5033575;28;20043;-77
2024/04/04 13:26:05;;;;;;;52.75;9.00;;;;;;;;;;5032988;28;20041;-78
2024/04/04 13:28:31;;;;;;;54.28;8.38;;;;;;;;;;5023644;28;20062;-78
2024/04/04 13:30:57;;;;;;;59.50;8.15;;;;;;;;;;5033195;28;20058;-78
2024/04/04 13:33:23;;;;;;;50.00;8.55;;;;;;;;;;5032772;28;22256;-77
2024/04/04 13:35:51;;;;;;;58.60;8.65;;;;;;;;;;5033229;28;20396;-78
2024/04/04 13:38:17;;;;;;;62.72;9.52;;;;;;;;;;5032889;28;20392;-78
2024/04/04 13:40:44;;;;;;;66.95;9.30;;;;;;;;;;5032980;28;20049;-77
2024/04/04 13:43:09;;;;;;;65.45;9.70;;;;;;;;;;5032839;28;20050;-78
2024/04/04 13:45:35;;;;;;;60.92;9.27;;;;;;;;;;5016509;28;20048;-78
2024/04/04 13:48:01;;;;;;;65.10;10.18;;;;;;;;;;5033027;28;20041;-78
2024/04/04 13:50:27;;;;;;;63.17;9.48;;;;;;;;;;5015733;28;20034;-77
2024/04/04 13:52:53;;;;;;;68.63;9.45;;;;;;;;;;5032744;28;20055;-77
2024/04/04 13:55:19;;;;;;;54.60;8.98;;;;;;;;;;5032551;28;20552;-78
2024/04/04 13:57:45;;;;;;;50.30;8.80;;;;;;;;;;5032980;28;20091;-77
2024/04/04 14:00:14;;;;;;;59.40;8.38;;;;;;;;;;5032142;28;20057;-77
2024/04/04 14:02:40;;;;;;;58.75;8.95;;;;;;;;;;5032735;28;20041;-77
2024/04/04 14:05:06;;;;;;;61.75;8.93;;;;;;;;;;5032152;28;20045;-77
2024/04/04 14:07:32;;;;;;;52.47;8.68;;;;;;;;;;5032571;28;20045;-78
2024/04/04 14:09:58;;;;;;;63.40;9.00;;;;;;;;;;5049194;28;20424;-77